createdAt,value
2023-01-13T01:55:52.191Z,7.90
2023-01-13T02:07:00.425Z,7.80
2023-01-13T02:12:31.812Z,7.70
2023-01-13T02:18:21.619Z,7.70
2023-01-13T02:24:13.258Z,7.60
2023-01-13T02:30:30.531Z,7.60
2023-01-13T02:35:59.311Z,7.60
2023-01-13T02:41:52.956Z,7.60
2023-01-13T02:48:04.189Z,7.60
2023-01-13T02:54:02.417Z,7.60
2023-01-13T03:05:11.815Z,7.70
2023-01-13T03:18:45.030Z,7.70
2023-01-13T03:22:47.331Z,7.80
2023-01-13T03:28:34.150Z,7.80
2023-01-13T03:34:22.001Z,7.80
2023-01-13T03:39:35.096Z,7.80
2023-01-13T03:45:04.258Z,7.70
2023-01-13T03:50:32.207Z,7.70
2023-01-13T03:56:04.591Z,7.70
2023-01-13T04:01:32.125Z,7.70
2023-01-13T04:07:09.995Z,7.60
2023-01-13T04:12:35.210Z,7.60
2023-01-13T04:17:52.319Z,7.50
2023-01-13T04:28:55.062Z,7.60
2023-01-13T04:34:15.769Z,7.50
2023-01-13T04:39:41.806Z,7.50
2023-01-13T04:50:47.008Z,7.50
2023-01-13T04:56:12.160Z,7.50
2023-01-13T05:01:51.616Z,7.50
2023-01-13T05:07:33.107Z,7.40
2023-01-13T05:13:23.633Z,7.40
2023-01-13T05:19:35.898Z,7.40
2023-01-13T05:25:16.590Z,7.40
2023-01-13T05:31:52.041Z,7.40
2023-01-13T05:36:31.236Z,7.40
2023-01-13T05:42:36.560Z,7.50
2023-01-13T05:48:05.364Z,7.40
2023-01-13T05:58:29.428Z,7.40
2023-01-13T06:03:31.601Z,7.40
2023-01-13T06:08:33.557Z,7.30
2023-01-13T06:13:35.507Z,7.30
2023-01-13T06:18:37.422Z,7.30
2023-01-13T06:23:39.288Z,7.30
2023-01-13T06:28:41.149Z,7.30
2023-01-13T06:33:53.138Z,7.30
2023-01-13T06:38:57.357Z,7.20
2023-01-13T06:43:59.187Z,7.20
2023-01-13T06:49:01.252Z,7.30
2023-01-13T06:54:03.435Z,7.30
2023-01-13T06:59:05.457Z,7.30
2023-01-13T07:04:07.690Z,7.40
2023-01-13T07:09:09.643Z,7.40
2023-01-13T07:14:29.975Z,7.40
2023-01-13T07:19:32.238Z,7.40
2023-01-13T07:24:34.148Z,7.40
2023-01-13T07:29:37.371Z,7.40
2023-01-13T07:34:39.254Z,7.40
2023-01-13T07:39:41.257Z,7.40
2023-01-13T07:44:43.100Z,7.30
2023-01-13T07:49:44.953Z,7.30
2023-01-13T07:54:46.820Z,7.30
2023-01-13T07:59:48.680Z,7.30
2023-01-13T08:04:50.593Z,7.30
2023-01-13T08:09:52.431Z,7.40
2023-01-13T08:14:54.340Z,7.40
2023-01-13T08:19:56.288Z,7.40
2023-01-13T08:24:58.182Z,7.50
2023-01-13T08:30:00.052Z,7.50
2023-01-13T08:35:01.999Z,7.60
2023-01-13T08:40:04.795Z,7.60
2023-01-13T08:45:07.619Z,7.70
2023-01-13T08:50:10.989Z,7.70
2023-01-13T08:55:12.937Z,7.80
2023-01-13T09:00:17.227Z,7.90
2023-01-13T09:05:19.659Z,8.00
2023-01-13T09:10:21.570Z,8.00
2023-01-13T09:15:23.542Z,8.00
2023-01-13T09:20:25.409Z,8.10
2023-01-13T09:25:27.659Z,8.10
2023-01-13T09:30:31.086Z,8.10
2023-01-13T09:35:33.082Z,8.20
2023-01-13T09:40:43.962Z,8.20
2023-01-13T09:46:00.310Z,8.10
2023-01-13T09:51:21.566Z,8.10
2023-01-13T09:56:24.643Z,8.10
2023-01-13T10:01:32.557Z,8.20
2023-01-13T10:06:42.112Z,8.20
2023-01-13T10:12:07.356Z,8.10
2023-01-13T10:17:19.595Z,8.00
2023-01-13T10:22:21.515Z,7.90
2023-01-13T10:27:34.982Z,7.80
2023-01-13T10:32:36.930Z,7.70
2023-01-13T10:37:38.904Z,7.60
2023-01-13T10:42:41.675Z,7.60
2023-01-13T10:47:45.794Z,7.50
2023-01-13T10:53:00.249Z,7.60
2023-01-13T10:58:18.311Z,7.60
2023-01-13T11:03:23.257Z,7.60
2023-01-13T11:08:27.927Z,7.60
2023-01-13T11:13:36.250Z,7.70
2023-01-13T11:18:40.256Z,7.70
2023-01-13T11:23:47.772Z,7.80
2023-01-13T11:28:58.157Z,7.90
2023-01-13T11:34:14.563Z,7.90
2023-01-13T11:39:26.617Z,8.00
2023-01-13T11:44:41.671Z,8.00
2023-01-13T11:49:51.163Z,8.00
2023-01-13T11:55:25.467Z,8.00
2023-01-13T12:01:14.689Z,8.10
2023-01-13T12:06:36.704Z,8.10
2023-01-13T12:12:33.486Z,8.20
2023-01-13T12:17:50.851Z,8.20
2023-01-13T12:22:54.302Z,8.30
2023-01-13T12:28:01.031Z,8.30
2023-01-13T12:33:21.358Z,8.40
2023-01-13T12:38:32.397Z,8.40
2023-01-13T12:43:56.172Z,8.50
2023-01-13T12:49:04.957Z,8.50
2023-01-13T12:54:37.896Z,8.50
2023-01-13T12:59:40.187Z,8.50
2023-01-13T13:04:51.931Z,8.60
2023-01-13T13:09:59.234Z,8.60
2023-01-13T13:15:03.840Z,8.60
2023-01-13T13:20:44.488Z,8.60
2023-01-13T13:26:07.400Z,8.70
2023-01-13T13:31:20.191Z,8.70
2023-01-13T13:36:37.384Z,8.70
2023-01-13T13:42:01.828Z,8.70
2023-01-13T13:47:08.469Z,8.80
2023-01-13T13:52:29.537Z,8.80
2023-01-13T13:57:39.653Z,8.80
2023-01-13T14:02:48.292Z,8.70
2023-01-13T14:07:59.985Z,8.70
2023-01-13T14:13:04.070Z,8.70
2023-01-13T14:18:12.421Z,8.80
2023-01-13T14:23:16.943Z,8.70
2023-01-13T14:28:34.670Z,8.80
2023-01-13T14:33:44.045Z,8.70
2023-01-13T14:39:03.057Z,8.70
2023-01-13T14:44:25.706Z,8.70
2023-01-13T14:49:36.131Z,8.70
2023-01-13T14:54:51.435Z,8.70
2023-01-13T15:00:04.859Z,8.70
2023-01-13T15:05:19.082Z,8.70
2023-01-13T15:10:24.198Z,8.70
2023-01-13T15:15:35.179Z,8.70
2023-01-13T15:20:36.988Z,8.70
2023-01-13T15:25:40.891Z,8.70
2023-01-13T15:30:42.786Z,8.70
2023-01-13T15:35:47.958Z,8.70
2023-01-13T15:40:51.045Z,8.70
2023-01-13T15:46:11.507Z,8.70
2023-01-13T15:51:14.074Z,8.80
2023-01-13T15:56:22.947Z,8.80
2023-01-13T16:01:24.972Z,8.80
2023-01-13T16:06:32.592Z,8.80
2023-01-13T16:11:35.758Z,8.80
2023-01-13T16:17:05.105Z,8.80
2023-01-13T16:36:27.848Z,8.90
2023-01-13T17:23:59.504Z,8.80
2023-01-13T17:36:15.554Z,8.70
2023-01-13T17:40:51.997Z,8.70
2023-01-13T17:46:48.577Z,8.70
2023-01-13T17:52:27.236Z,8.70
2023-01-13T19:42:01.297Z,7.90
2023-01-13T22:39:28.115Z,7.90
2023-01-13T22:57:25.304Z,7.80
2023-01-13T23:02:40.229Z,7.80
2023-01-13T23:07:52.905Z,7.70
2023-01-13T23:18:36.567Z,7.70
2023-01-13T23:31:12.564Z,7.70
2023-01-13T23:35:28.436Z,7.70
2023-01-13T23:52:12.891Z,7.50
